Time;durP1;ratioP1;P1;durP2;ratioP2;P2;SDS_P1;SDS_P2;PMS_P1;PMS_P2;Temp;Humidity;BMP_temperature;BMP_pressure;BME280_temperature;BME280_humidity;BME280_pressure;Samples;Min_cycle;Max_cycle;Signal;HPM_P1;HPM_P2
2023/07/30 00:02:04;;;;;;;;;;;;;;;23.96;53.62;100471.22;7397009;19;1548;-42
2023/07/30 00:04:32;;;;;;;;;;;;;;;23.98;53.91;100482.69;7396604;19;1245;-41
2023/07/30 00:07:03;;;;;;;;;;;;;;;23.93;53.71;100471.56;7394222;19;1447;-41
2023/07/30 00:09:31;;;;;;;;;;;;;;;23.94;53.85;100484.06;7395735;19;1267;-41
2023/07/30 00:12:01;;;;;;;;;;;;;;;23.80;54.04;100493.75;7394511;19;1830;-41
2023/07/30 00:14:30;;;;;;;;;;;;;;;23.85;54.21;100477.00;7394610;19;1162;-41
2023/07/30 00:16:58;;;;;;;;;;;;;;;23.88;53.92;100479.38;7397430;19;1397;-41
2023/07/30 00:19:26;;;;;;;;;;;;;;;23.74;54.19;100494.41;7395741;19;1619;-41
2023/07/30 00:21:54;;;;;;;;;;;;;;;23.82;54.01;100481.75;7391388;19;1323;-41
2023/07/30 00:24:25;;;;;;;;;;;;;;;23.72;53.90;100475.66;7395463;19;1461;-41
2023/07/30 00:26:54;;;;;;;;;;;;;;;23.81;53.55;100484.59;7394124;19;1173;-41
2023/07/30 00:29:22;;;;;;;;;;;;;;;23.74;53.56;100473.63;7394366;19;1211;-41
2023/07/30 00:31:50;;;;;;;;;;;;;;;23.65;53.80;100480.06;7394694;19;1845;-41
2023/07/30 00:34:18;;;;;;;;;;;;;;;23.74;53.23;100481.75;7395443;19;1208;-41
2023/07/30 00:36:47;;;;;;;;;;;;;;;23.84;53.20;100475.34;7394934;19;1671;-41
2023/07/30 00:39:15;;;;;;;;;;;;;;;23.80;53.13;100480.25;7393524;19;1523;-41
2023/07/30 00:41:46;;;;;;;;;;;;;;;23.79;53.17;100473.13;7394493;19;1444;-41
2023/07/30 00:44:14;;;;;;;;;;;;;;;23.84;52.92;100478.03;7395012;19;1417;-41
2023/07/30 00:46:43;;;;;;;;;;;;;;;23.87;52.98;100483.06;7396395;19;1527;-41
2023/07/30 00:49:11;;;;;;;;;;;;;;;23.88;52.96;100477.50;7396120;19;1449;-41
2023/07/30 00:51:40;;;;;;;;;;;;;;;23.89;53.14;100481.03;7395637;19;1849;-41
2023/07/30 00:54:08;;;;;;;;;;;;;;;23.86;53.11;100470.59;7396180;19;1531;-40
2023/07/30 00:56:36;;;;;;;;;;;;;;;23.86;52.80;100471.44;7396153;19;1179;-41
2023/07/30 00:59:07;;;;;;;;;;;;;;;23.80;52.76;100454.06;7397572;19;1181;-41
2023/07/30 01:01:36;;;;;;;;;;;;;;;23.85;52.68;100464.34;7396945;19;1117;-41
2023/07/30 01:04:05;;;;;;;;;;;;;;;23.82;52.98;100470.94;7396274;19;1956;-40
2023/07/30 01:06:33;;;;;;;;;;;;;;;23.81;53.05;100461.16;7396343;19;1848;-41
2023/07/30 01:09:01;;;;;;;;;;;;;;;23.86;52.52;100460.63;7395619;19;1303;-41
2023/07/30 01:11:30;;;;;;;;;;;;;;;23.79;52.69;100460.47;7395973;19;1845;-41
2023/07/30 01:13:59;;;;;;;;;;;;;;;23.86;52.97;100476.84;7394743;19;1257;-41
2023/07/30 01:16:30;;;;;;;;;;;;;;;23.28;52.86;100397.88;7395140;19;1457;-41
2023/07/30 01:19:01;;;;;;;;;;;;;;;23.79;52.92;100455.06;7394060;19;1375;-41
2023/07/30 01:21:31;;;;;;;;;;;;;;;23.81;52.94;100460.31;7395646;19;1573;-41
2023/07/30 01:24:00;;;;;;;;;;;;;;;23.76;52.62;100446.47;7395523;19;1496;-41
2023/07/30 01:26:33;;;;;;;;;;;;;;;23.79;52.96;100448.84;7395960;19;1512;-41
2023/07/30 01:29:02;;;;;;;;;;;;;;;23.82;52.77;100456.59;7397079;19;1300;-40
2023/07/30 01:31:32;;;;;;;;;;;;;;;23.62;53.64;100458.84;7395707;19;1851;-40
2023/07/30 01:34:02;;;;;;;;;;;;;;;23.71;53.34;100468.56;7395331;19;1532;-41
2023/07/30 01:36:33;;;;;;;;;;;;;;;23.76;53.44;100466.22;7395341;19;1222;-41
2023/07/30 01:39:02;;;;;;;;;;;;;;;23.85;52.73;100469.75;7395636;19;1609;-41
2023/07/30 01:41:30;;;;;;;;;;;;;;;23.85;52.80;100460.81;7395349;19;1533;-40
2023/07/30 01:43:58;;;;;;;;;;;;;;;23.81;53.02;100457.59;7394798;19;1283;-41
2023/07/30 01:46:27;;;;;;;;;;;;;;;23.71;53.50;100457.78;7396001;19;1173;-41
2023/07/30 01:48:55;;;;;;;;;;;;;;;23.83;52.90;100450.16;7402973;19;1236;-40
2023/07/30 01:51:23;;;;;;;;;;;;;;;23.82;52.88;100453.91;7401970;19;1893;-41
2023/07/30 01:53:54;;;;;;;;;;;;;;;23.81;52.69;100452.22;7402827;19;1269;-40
2023/07/30 01:56:23;;;;;;;;;;;;;;;23.81;52.81;100444.97;7403364;19;1783;-41
2023/07/30 01:58:51;;;;;;;;;;;;;;;23.81;52.57;100436.88;7404515;19;1218;-40
2023/07/30 02:01:19;;;;;;;;;;;;;;;23.69;53.04;100443.59;7403708;19;1850;-41
2023/07/30 02:03:47;;;;;;;;;;;;;;;23.66;53.04;100441.28;7402962;19;1912;-41
2023/07/30 02:06:16;;;;;;;;;;;;;;;23.64;53.15;100446.00;7403501;19;1350;-41
2023/07/30 02:08:44;;;;;;;;;;;;;;;23.64;53.13;100446.00;7402992;19;1761;-41
2023/07/30 02:11:15;;;;;;;;;;;;;;;23.63;53.19;100455.09;7402424;19;1468;-41
2023/07/30 02:13:43;;;;;;;;;;;;;;;23.12;52.88;100365.53;7398761;19;1990;-40
2023/07/30 02:16:11;;;;;;;;;;;;;;;23.69;53.07;100450.88;7402003;19;1755;-41
2023/07/30 02:18:40;;;;;;;;;;;;;;;23.69;52.76;100448.19;7402803;19;1404;-41
2023/07/30 02:21:08;;;;;;;;;;;;;;;23.66;52.92;100440.44;7400487;19;1378;-41
2023/07/30 02:23:37;;;;;;;;;;;;;;;23.73;52.67;100455.75;7401251;19;1425;-40
2023/07/30 02:26:05;;;;;;;;;;;;;;;23.74;52.82;100441.25;7402130;19;1244;-40
2023/07/30 02:28:36;;;;;;;;;;;;;;;23.70;52.96;100457.97;7403153;19;1148;-40
2023/07/30 02:31:04;;;;;;;;;;;;;;;23.66;53.14;100452.06;7401560;19;1535;-41
2023/07/30 02:33:32;;;;;;;;;;;;;;;23.59;53.16;100459.16;7399125;19;1856;-41
2023/07/30 02:36:01;;;;;;;;;;;;;;;23.70;52.68;100461.50;7401465;19;1501;-41
2023/07/30 02:38:29;;;;;;;;;;;;;;;23.62;52.71;100458.84;7401155;19;1477;-41
2023/07/30 02:40:57;;;;;;;;;;;;;;;23.56;52.95;100459.53;7401042;19;1659;-40
2023/07/30 02:43:25;;;;;;;;;;;;;;;23.54;52.86;100453.47;7400846;19;1215;-41
2023/07/30 02:45:56;;;;;;;;;;;;;;;23.57;52.77;100453.09;7401383;19;1255;-40
2023/07/30 02:48:24;;;;;;;;;;;;;;;23.58;52.85;100457.50;7400889;19;1981;-40
2023/07/30 02:50:53;;;;;;;;;;;;;;;23.54;52.96;100451.59;7401498;19;1245;-40
2023/07/30 02:53:21;;;;;;;;;;;;;;;23.54;52.92;100458.88;7399076;19;1853;-41
2023/07/30 02:55:49;;;;;;;;;;;;;;;23.54;52.87;100453.47;7401500;19;1098;-41
2023/07/30 02:58:18;;;;;;;;;;;;;;;23.55;52.89;100447.03;7399806;19;1647;-40
2023/07/30 03:00:46;;;;;;;;;;;;;;;23.55;52.91;100463.22;7401213;19;1527;-41
2023/07/30 03:03:17;;;;;;;;;;;;;;;23.51;52.82;100456.50;7400744;19;1274;-41
2023/07/30 03:05:45;;;;;;;;;;;;;;;23.54;52.81;100456.16;7400790;19;1276;-40
2023/07/30 03:08:13;;;;;;;;;;;;;;;23.55;52.92;100466.78;7398002;19;1758;-41
2023/07/30 03:10:42;;;;;;;;;;;;;;;23.52;52.79;100463.59;7401879;19;1172;-40
2023/07/30 03:13:10;;;;;;;;;;;;;;;23.50;52.80;100460.22;7398155;19;1856;-41
2023/07/30 03:15:38;;;;;;;;;;;;;;;23.55;52.78;100469.47;7400143;19;1403;-40
2023/07/30 03:18:06;;;;;;;;;;;;;;;23.55;53.00;100474.03;7400254;19;1485;-41
2023/07/30 03:20:37;;;;;;;;;;;;;;;23.55;52.78;100466.78;7398710;19;1172;-40
2023/07/30 03:23:05;;;;;;;;;;;;;;;23.56;52.72;100475.72;7399716;19;1315;-41
2023/07/30 03:25:34;;;;;;;;;;;;;;;23.55;52.98;100477.56;7401277;19;1232;-40
2023/07/30 03:28:02;;;;;;;;;;;;;;;23.52;52.84;100485.19;7399740;19;1943;-41
2023/07/30 03:30:30;;;;;;;;;;;;;;;23.57;52.72;100489.03;7400131;19;1212;-40
2023/07/30 03:32:59;;;;;;;;;;;;;;;23.52;52.78;100486.03;7398146;19;1855;-41
2023/07/30 03:35:27;;;;;;;;;;;;;;;23.51;52.99;100491.59;7400350;19;1497;-41
2023/07/30 03:37:58;;;;;;;;;;;;;;;23.54;53.07;100496.66;7398998;19;1232;-40
2023/07/30 03:40:26;;;;;;;;;;;;;;;23.53;52.96;100494.94;7400526;19;1161;-40
2023/07/30 03:42:54;;;;;;;;;;;;;;;23.54;53.07;100504.75;7398734;19;1237;-41
2023/07/30 03:45:23;;;;;;;;;;;;;;;23.49;53.44;100496.31;7399158;19;1338;-41
2023/07/30 03:47:51;;;;;;;;;;;;;;;23.52;53.07;100504.91;7398937;19;1524;-41
2023/07/30 03:50:19;;;;;;;;;;;;;;;23.55;52.75;100490.22;7400114;19;1172;-41
2023/07/30 03:52:47;;;;;;;;;;;;;;;23.54;52.82;100507.44;7398052;19;1848;-41
2023/07/30 03:55:18;;;;;;;;;;;;;;;23.54;52.76;100502.06;7398791;19;1947;-41
2023/07/30 03:57:47;;;;;;;;;;;;;;;23.59;52.73;100499.66;7398677;19;1295;-41
2023/07/30 04:00:15;;;;;;;;;;;;;;;23.63;52.49;100509.09;7398909;19;1832;-40
2023/07/30 04:02:43;;;;;;;;;;;;;;;23.68;52.41;100511.31;7398527;19;1530;-41
2023/07/30 04:05:11;;;;;;;;;;;;;;;23.70;52.50;100510.09;7398231;19;1187;-41
2023/07/30 04:07:40;;;;;;;;;;;;;;;23.72;52.07;100505.38;7399176;19;1739;-40
2023/07/30 04:10:08;;;;;;;;;;;;;;;23.74;52.20;100511.44;7399738;19;1052;-40
2023/07/30 04:12:39;;;;;;;;;;;;;;;23.74;52.53;100514.13;7397653;19;1844;-41
2023/07/30 04:15:08;;;;;;;;;;;;;;;23.68;53.12;100517.53;7399115;19;1679;-41
2023/07/30 04:17:37;;;;;;;;;;;;;;;23.60;53.11;100528.34;7398180;19;1370;-41
2023/07/30 04:20:06;;;;;;;;;;;;;;;23.48;53.53;100518.94;7397225;19;1467;-40
2023/07/30 04:22:35;;;;;;;;;;;;;;;23.34;53.84;100524.00;7397994;19;1373;-40
2023/07/30 04:25:03;;;;;;;;;;;;;;;23.58;53.30;100522.28;7399808;19;1061;-40
2023/07/30 04:27:31;;;;;;;;;;;;;;;23.59;53.26;100529.34;7396659;19;1955;-40
2023/07/30 04:30:03;;;;;;;;;;;;;;;23.62;52.97;100523.63;7398508;19;1805;-40
2023/07/30 04:32:31;;;;;;;;;;;;;;;23.81;52.29;100531.38;7398038;19;1862;-40
2023/07/30 04:34:59;;;;;;;;;;;;;;;23.84;52.39;100521.25;7398324;19;1571;-41
2023/07/30 04:37:27;;;;;;;;;;;;;;;23.90;52.49;100521.38;7397757;19;1462;-41
2023/07/30 04:39:56;;;;;;;;;;;;;;;23.68;53.51;100524.78;7398194;19;1198;-41
2023/07/30 04:42:24;;;;;;;;;;;;;;;23.65;53.45;100517.03;7397195;19;1139;-41
2023/07/30 04:44:52;;;;;;;;;;;;;;;23.55;53.59;100512.66;7396716;19;1302;-41
2023/07/30 04:47:23;;;;;;;;;;;;;;;23.57;53.77;100520.59;7397442;19;1282;-41
2023/07/30 04:49:51;;;;;;;;;;;;;;;23.70;53.52;100522.78;7397136;19;1217;-41
2023/07/30 04:52:19;;;;;;;;;;;;;;;23.67;53.57;100513.13;7396974;19;1867;-41
2023/07/30 04:54:48;;;;;;;;;;;;;;;23.75;53.53;100525.78;7397617;19;1220;-40
2023/07/30 04:57:16;;;;;;;;;;;;;;;23.69;53.65;100529.16;7397167;19;1481;-40
2023/07/30 04:59:44;;;;;;;;;;;;;;;23.88;53.14;100523.41;7397319;19;1533;-41
2023/07/30 05:02:13;;;;;;;;;;;;;;;23.79;53.38;100519.03;7396999;19;1679;-41
2023/07/30 05:04:43;;;;;;;;;;;;;;;24.00;53.50;100516.63;7396951;19;1168;-40
2023/07/30 05:07:12;;;;;;;;;;;;;;;23.97;55.12;100524.22;7396335;19;1635;-40
2023/07/30 05:09:40;;;;;;;;;;;;;;;23.97;55.10;100537.72;7397062;19;1140;-41
2023/07/30 05:12:09;;;;;;;;;;;;;;;23.94;54.78;100532.69;7396779;19;1421;-41
2023/07/30 05:14:37;;;;;;;;;;;;;;;23.97;55.74;100526.91;7394925;19;1894;-40
2023/07/30 05:17:05;;;;;;;;;;;;;;;24.11;55.24;100539.69;7396982;19;1532;-40
2023/07/30 05:19:34;;;;;;;;;;;;;;;24.15;55.13;100524.84;7396261;19;1576;-40
2023/07/30 05:22:07;;;;;;;;;;;;;;;24.16;55.30;100525.69;7392374;19;1244;-41
2023/07/30 05:24:36;;;;;;;;;;;;;;;24.11;55.13;100515.38;7393783;19;1269;-41
2023/07/30 05:27:05;;;;;;;;;;;;;;;24.28;55.26;100534.25;7392139;19;1682;-40
2023/07/30 05:29:33;;;;;;;;;;;;;;;24.32;55.68;100516.66;7393947;19;1551;-40
2023/07/30 05:32:01;;;;;;;;;;;;;;;24.36;55.77;100515.28;7395769;19;1259;-41
2023/07/30 05:34:30;;;;;;;;;;;;;;;24.31;56.59;100537.44;7393114;19;1855;-40
2023/07/30 05:36:58;;;;;;;;;;;;;;;24.34;56.31;100523.56;7396488;19;1204;-41
2023/07/30 05:39:29;;;;;;;;;;;;;;;24.31;57.25;100534.72;7395477;19;1520;-40
2023/07/30 05:41:57;;;;;;;;;;;;;;;24.32;56.67;100535.56;7395458;19;1634;-40
2023/07/30 05:44:25;;;;;;;;;;;;;;;24.43;56.60;100524.34;7395875;19;1596;-41
2023/07/30 05:46:53;;;;;;;;;;;;;;;24.58;56.72;100528.00;7393924;19;1453;-41
2023/07/30 05:49:22;;;;;;;;;;;;;;;24.52;56.68;100536.00;7394685;19;1386;-40
2023/07/30 05:51:50;;;;;;;;;;;;;;;24.58;56.24;100516.38;7394197;19;1681;-41
2023/07/30 05:54:19;;;;;;;;;;;;;;;24.56;56.23;100511.13;7394630;19;1853;-40
2023/07/30 05:56:50;;;;;;;;;;;;;;;24.69;56.43;100520.50;7394126;19;1523;-41
2023/07/30 05:59:18;;;;;;;;;;;;;;;24.91;56.09;100525.09;7394846;19;1469;-40
2023/07/30 06:01:46;;;;;;;;;;;;;;;24.76;56.31;100526.91;7394340;19;1226;-40
2023/07/30 06:04:15;;;;;;;;;;;;;;;24.73;57.18;100529.94;7395268;19;1424;-41
2023/07/30 06:06:43;;;;;;;;;;;;;;;24.73;57.08;100516.41;7393141;19;1500;-41
2023/07/30 06:09:12;;;;;;;;;;;;;;;24.76;56.96;100510.66;7394052;19;1524;-41
2023/07/30 06:11:40;;;;;;;;;;;;;;;24.93;56.82;100501.41;7393024;19;2011;-40
2023/07/30 06:14:11;;;;;;;;;;;;;;;24.95;56.88;100507.47;7392537;19;1864;-41
2023/07/30 06:16:39;;;;;;;;;;;;;;;24.92;57.40;100521.34;7392255;19;2613;-41
2023/07/30 06:19:07;;;;;;;;;;;;;;;24.96;57.04;100506.44;7393225;19;1547;-41
2023/07/30 06:21:36;;;;;;;;;;;;;;;25.01;57.14;100506.75;7393604;19;1388;-41
2023/07/30 06:24:04;;;;;;;;;;;;;;;25.16;57.51;100520.31;7394234;19;1277;-41
2023/07/30 06:26:32;;;;;;;;;;;;;;;25.30;57.02;100509.75;7391393;19;1229;-40
2023/07/30 06:29:01;;;;;;;;;;;;;;;25.16;56.95;100514.06;7393057;19;1322;-40
2023/07/30 06:31:32;;;;;;;;;;;;;;;25.15;57.21;100502.41;7393055;19;1849;-41
2023/07/30 06:34:00;;;;;;;;;;;;;;;25.13;57.81;100517.16;7394918;19;1853;-41
2023/07/30 06:36:28;;;;;;;;;;;;;;;25.37;57.09;100503.41;7401446;19;1254;-41
2023/07/30 06:38:56;;;;;;;;;;;;;;;25.16;57.46;100509.50;7400523;19;1529;-40
2023/07/30 06:41:25;;;;;;;;;;;;;;;25.07;57.42;100501.63;7400946;19;1341;-41
2023/07/30 06:43:53;;;;;;;;;;;;;;;25.13;58.41;100490.94;7400487;19;1508;-40
2023/07/30 06:46:22;;;;;;;;;;;;;;;25.12;57.86;100497.34;7399683;19;1269;-40
2023/07/30 06:48:52;;;;;;;;;;;;;;;25.05;57.92;100492.84;7399617;19;1258;-41
2023/07/30 06:51:22;;;;;;;;;;;;;;;25.20;57.53;100497.28;7396938;19;1234;-41
2023/07/30 06:53:50;;;;;;;;;;;;;;;25.16;57.61;100495.13;7393792;19;1849;-41
2023/07/30 06:56:18;;;;;;;;;;;;;;;25.10;57.12;100488.56;7397308;19;1222;-41
2023/07/30 06:58:46;;;;;;;;;;;;;;;25.13;57.67;100485.53;7395815;19;1333;-41
2023/07/30 07:01:14;;;;;;;;;;;;;;;25.37;57.88;100498.00;7390280;19;1472;-43
2023/07/30 07:03:43;;;;;;;;;;;;;;;25.35;57.54;100481.13;7395163;19;1328;-43
2023/07/30 07:06:14;;;;;;;;;;;;;;;25.37;57.84;100479.06;7394252;19;1297;-43
2023/07/30 07:08:42;;;;;;;;;;;;;;;25.31;59.00;100487.09;7394472;19;1523;-43
2023/07/30 07:11:10;;;;;;;;;;;;;;;25.55;58.28;100488.69;7397509;19;1598;-43
2023/07/30 07:13:38;;;;;;;;;;;;;;;25.44;58.33;100470.19;7397639;19;1886;-44
2023/07/30 07:16:07;;;;;;;;;;;;;;;24.86;57.17;100475.28;7399434;19;1431;-44
2023/07/30 07:18:35;;;;;;;;;;;;;;;24.57;58.10;100483.09;7399706;19;1218;-41
2023/07/30 07:21:04;;;;;;;;;;;;;;;24.58;58.02;100471.25;7390583;19;1442;-41
2023/07/30 07:23:34;;;;;;;;;;;;;;;24.21;56.35;100480.91;7393646;19;1394;-41
2023/07/30 07:26:03;;;;;;;;;;;;;;;23.89;56.02;100486.44;7398089;19;1287;-41
2023/07/30 07:28:31;;;;;;;;;;;;;;;23.55;56.26;100474.88;7395958;19;2073;-41
2023/07/30 07:30:59;;;;;;;;;;;;;;;23.42;56.78;100483.50;7398700;19;1236;-40
2023/07/30 07:33:27;;;;;;;;;;;;;;;23.52;56.43;100472.53;7394182;19;1859;-40
2023/07/30 07:36:05;;;;;;;;;;;;;;;23.53;56.81;100474.19;7392963;19;1528;-41
2023/07/30 07:38:36;;;;;;;;;;;;;;;23.50;56.94;100487.22;7393278;19;1444;-41
2023/07/30 07:41:05;;;;;;;;;;;;;;;23.55;56.55;100458.66;7392527;19;1535;-41
2023/07/30 07:43:33;;;;;;;;;;;;;;;23.43;57.18;100466.28;7393003;19;1413;-40
2023/07/30 07:46:01;;;;;;;;;;;;;;;23.40;57.17;100466.66;7392886;19;1458;-41
2023/07/30 07:48:29;;;;;;;;;;;;;;;23.53;56.85;100454.47;7393333;19;1505;-41
2023/07/30 07:50:58;;;;;;;;;;;;;;;23.44;57.50;100456.34;7391691;19;1457;-41
2023/07/30 07:53:26;;;;;;;;;;;;;;;23.40;58.12;100466.66;7392672;19;1852;-41
2023/07/30 07:55:57;;;;;;;;;;;;;;;23.41;57.71;100454.00;7392706;19;1210;-41
2023/07/30 07:58:25;;;;;;;;;;;;;;;23.41;58.29;100470.19;7397154;19;1282;-41
2023/07/30 08:00:56;;;;;;;;;;;;;;;23.29;58.68;100456.22;7396467;19;1877;-41
2023/07/30 08:03:26;;;;;;;;;;;;;;;23.35;58.37;100444.72;7397607;19;1462;-40
2023/07/30 08:05:55;;;;;;;;;;;;;;;23.39;58.59;100448.75;7397568;19;1425;-41
2023/07/30 08:08:23;;;;;;;;;;;;;;;23.40;59.08;100445.06;7396904;19;1249;-40
2023/07/30 08:10:52;;;;;;;;;;;;;;;23.33;59.71;100444.06;7396935;19;1287;-41
2023/07/30 08:13:22;;;;;;;;;;;;;;;23.35;59.50;100447.41;7396280;19;1450;-40
2023/07/30 08:15:51;;;;;;;;;;;;;;;23.37;59.72;100450.78;7397717;19;1426;-40
2023/07/30 08:18:19;;;;;;;;;;;;;;;23.31;60.16;100443.38;7397092;19;1604;-40
2023/07/30 08:20:47;;;;;;;;;;;;;;;23.37;59.53;100439.16;7395825;19;1465;-40
2023/07/30 08:23:16;;;;;;;;;;;;;;;23.35;59.95;100452.81;7396570;19;1614;-40
2023/07/30 08:25:44;;;;;;;;;;;;;;;23.27;60.40;100447.44;7396989;19;1299;-40
2023/07/30 08:28:12;;;;;;;;;;;;;;;23.25;60.58;100464.81;7396638;19;1947;-41
2023/07/30 08:30:43;;;;;;;;;;;;;;;23.25;60.71;100440.53;7395949;19;1226;-41
2023/07/30 08:33:11;;;;;;;;;;;;;;;23.22;60.99;100442.56;7396110;19;1273;-40
2023/07/30 08:35:40;;;;;;;;;;;;;;;23.37;60.39;100441.84;7395384;19;1864;-40
2023/07/30 08:38:08;;;;;;;;;;;;;;;23.25;60.45;100438.69;7393477;19;1654;-41
2023/07/30 08:40:36;;;;;;;;;;;;;;;23.20;61.04;100433.81;7394916;19;1203;-40
2023/07/30 08:43:05;;;;;;;;;;;;;;;23.25;60.55;100430.59;7395785;19;1202;-41
2023/07/30 08:45:34;;;;;;;;;;;;;;;23.28;60.75;100438.34;7391848;19;1595;-43
2023/07/30 08:48:05;;;;;;;;;;;;;;;23.21;60.80;100434.63;7394752;19;1559;-43
2023/07/30 08:50:34;;;;;;;;;;;;;;;23.37;60.07;100422.97;7394183;19;1606;-43
2023/07/30 08:53:03;;;;;;;;;;;;;;;23.31;59.75;100411.00;7395798;19;1369;-43
2023/07/30 08:55:32;;;;;;;;;;;;;;;23.40;60.10;100419.94;7391551;19;1871;-43
2023/07/30 08:58:02;;;;;;;;;;;;;;;23.39;59.64;100410.97;7394626;19;1551;-43
2023/07/30 09:00:33;;;;;;;;;;;;;;;23.29;59.49;100421.13;7394691;19;1507;-43
2023/07/30 09:03:02;;;;;;;;;;;;;;;23.21;59.57;100404.97;7394193;19;1265;-43
2023/07/30 09:05:33;;;;;;;;;;;;;;;23.37;58.62;100418.41;7395355;19;1657;-43
2023/07/30 09:08:01;;;;;;;;;;;;;;;23.33;58.78;100417.06;7394489;19;1304;-43
2023/07/30 09:10:30;;;;;;;;;;;;;;;23.32;58.62;100414.56;7394781;19;1226;-43
2023/07/30 09:13:00;;;;;;;;;;;;;;;23.40;58.50;100401.06;7394051;19;1443;-43
2023/07/30 09:15:32;;;;;;;;;;;;;;;23.41;58.80;100406.25;7392853;19;1841;-43
2023/07/30 09:18:00;;;;;;;;;;;;;;;23.45;59.29;100397.81;7393011;19;1194;-43
2023/07/30 09:20:29;;;;;;;;;;;;;;;23.50;59.93;100396.28;7394770;19;1301;-44
2023/07/30 09:23:01;;;;;;;;;;;;;;;23.41;60.35;100395.47;7392140;19;1603;-43
2023/07/30 09:25:29;;;;;;;;;;;;;;;23.51;60.17;100381.75;7394711;19;1257;-44
2023/07/30 09:27:58;;;;;;;;;;;;;;;23.63;59.75;100385.78;7394456;19;1433;-43
2023/07/30 09:30:27;;;;;;;;;;;;;;;23.41;60.05;100384.66;7394721;19;1326;-45
2023/07/30 09:32:56;;;;;;;;;;;;;;;23.44;59.51;100383.50;7393299;19;1634;-43
2023/07/30 09:35:26;;;;;;;;;;;;;;;23.36;59.64;100389.75;7391956;19;1836;-43
2023/07/30 09:38:03;;;;;;;;;;;;;;;23.41;59.47;100381.97;7393489;19;1736;-43
2023/07/30 09:40:35;;;;;;;;;;;;;;;23.24;59.81;100372.25;7392487;19;1572;-43
2023/07/30 09:43:05;;;;;;;;;;;;;;;23.23;59.99;100373.25;7394210;19;1445;-43
2023/07/30 09:45:36;;;;;;;;;;;;;;;23.35;59.90;100374.56;7393895;19;1325;-44
2023/07/30 09:48:05;;;;;;;;;;;;;;;23.32;60.04;100374.94;7394203;19;1237;-43
2023/07/30 09:50:34;;;;;;;;;;;;;;;23.26;59.73;100364.84;7394849;19;1265;-44
2023/07/30 09:53:11;;;;;;;;;;;;;;;23.28;59.49;100373.59;7394520;19;1622;-43
2023/07/30 09:55:40;;;;;;;;;;;;;;;23.30;59.82;100368.88;7394179;19;1841;-44
2023/07/30 09:58:11;;;;;;;;;;;;;;;23.28;59.72;100365.50;7393199;19;1580;-44
2023/07/30 10:00:39;;;;;;;;;;;;;;;23.26;59.67;100348.66;7395042;19;1378;-43
2023/07/30 10:03:08;;;;;;;;;;;;;;;23.17;59.68;100364.00;7394240;19;1650;-40
2023/07/30 10:05:37;;;;;;;;;;;;;;;23.30;59.10;100358.06;7391508;19;1436;-41
2023/07/30 10:08:08;;;;;;;;;;;;;;;23.51;58.44;100372.84;7396973;19;1394;-41
2023/07/30 10:10:39;;;;;;;;;;;;;;;23.47;58.50;100342.66;7402576;19;1249;-41
2023/07/30 10:13:09;;;;;;;;;;;;;;;23.46;58.55;100334.72;7401605;19;1503;-41
2023/07/30 10:15:37;;;;;;;;;;;;;;;23.40;58.55;100396.50;7398126;19;1859;-41
2023/07/30 10:18:06;;;;;;;;;;;;;;;23.44;58.03;100332.22;7400332;19;1460;-41
2023/07/30 10:20:34;;;;;;;;;;;;;;;23.19;58.78;100347.66;7398522;19;1352;-44
2023/07/30 10:23:03;;;;;;;;;;;;;;;22.83;58.27;100248.28;7397835;19;1501;-44
2023/07/30 10:25:32;;;;;;;;;;;;;;;23.37;58.43;100325.84;7398063;19;1308;-41
2023/07/30 10:28:03;;;;;;;;;;;;;;;23.43;58.13;100325.97;7399384;19;1567;-41
2023/07/30 10:30:34;;;;;;;;;;;;;;;23.43;58.31;100341.31;7400310;19;1446;-41
2023/07/30 10:33:04;;;;;;;;;;;;;;;23.40;58.39;100325.50;7400078;19;1544;-41
2023/07/30 10:35:40;;;;;;;;;;;;;;;23.41;58.44;100317.19;7398774;19;1845;-41
2023/07/30 10:38:21;;;;;;;;;;;;;;;23.43;58.52;100301.69;7399271;19;1453;-41
2023/07/30 10:41:05;;;;;;;;;;;;;;;22.74;59.40;100247.50;7396716;19;3236;-40
2023/07/30 10:43:36;;;;;;;;;;;;;;;23.30;59.42;100301.41;7399728;19;1283;-40
2023/07/30 10:46:05;;;;;;;;;;;;;;;23.47;58.96;100309.44;7398206;19;1799;-41
2023/07/30 10:48:34;;;;;;;;;;;;;;;23.39;58.95;100308.44;7395369;19;1318;-54
2023/07/30 10:51:03;;;;;;;;;;;;;;;23.50;58.91;100309.09;7398154;19;1642;-41
2023/07/30 10:53:31;;;;;;;;;;;;;;;23.50;58.89;100309.09;7399489;19;1246;-41
2023/07/30 10:56:02;;;;;;;;;;;;;;;23.51;59.01;100305.38;7397248;19;1842;-41
2023/07/30 10:58:32;;;;;;;;;;;;;;;23.35;59.21;100315.22;7399560;19;1257;-62
2023/07/30 11:01:04;;;;;;;;;;;;;;;23.41;59.29;100306.41;6875835;19;10000310;-41
2023/07/30 11:03:32;;;;;;;;;;;;;;;23.50;59.03;100298.31;7384990;19;1638;-41
2023/07/30 11:06:01;;;;;;;;;;;;;;;23.47;58.70;100294.06;7388666;19;1524;-41
2023/07/30 11:08:36;;;;;;;;;;;;;;;23.50;58.52;100298.31;7392745;19;1667;-41
2023/07/30 11:11:04;;;;;;;;;;;;;;;23.48;58.57;100294.94;7393113;19;1461;-41
2023/07/30 11:13:37;;;;;;;;;;;;;;;23.46;58.58;100294.25;7391883;19;1457;-41
2023/07/30 11:16:09;;;;;;;;;;;;;;;23.53;58.42;100303.31;7392318;19;1842;-41
2023/07/30 11:18:37;;;;;;;;;;;;;;;23.50;58.31;100274.84;7386751;19;1961;-41
2023/07/30 11:21:06;;;;;;;;;;;;;;;23.44;58.15;100283.66;7390230;19;1473;-41
2023/07/30 11:23:35;;;;;;;;;;;;;;;23.48;58.30;100297.63;7387578;19;1541;-41
2023/07/30 11:26:04;;;;;;;;;;;;;;;23.45;58.32;100289.88;7392100;19;1387;-41
2023/07/30 11:28:32;;;;;;;;;;;;;;;23.45;58.26;100271.00;7393838;19;1386;-41
2023/07/30 11:31:02;;;;;;;;;;;;;;;23.42;58.10;100270.34;7391790;19;1392;-41
2023/07/30 11:33:33;;;;;;;;;;;;;;;23.46;57.95;100283.44;7392300;19;1378;-41
2023/07/30 11:36:03;;;;;;;;;;;;;;;23.41;58.19;100268.63;7386910;19;1861;-41
2023/07/30 11:38:32;;;;;;;;;;;;;;;23.45;58.12;100271.00;7391493;19;1434;-41
2023/07/30 11:41:01;;;;;;;;;;;;;;;23.48;58.01;100268.78;7388181;19;1489;-41
2023/07/30 11:43:29;;;;;;;;;;;;;;;23.46;57.76;100275.34;7391783;19;1435;-40
2023/07/30 11:46:10;;;;;;;;;;;;;;;23.42;57.87;100264.09;7391661;19;1568;-41
2023/07/30 11:48:42;;;;;;;;;;;;;;;23.40;57.89;100261.56;7391678;19;1354;-41
2023/07/30 11:51:21;;;;;;;;;;;;;;;23.46;58.14;100265.44;7388203;19;1555;-40
2023/07/30 11:53:51;;;;;;;;;;;;;;;23.41;58.01;100263.22;7393532;19;1461;-40
2023/07/30 11:56:20;;;;;;;;;;;;;;;23.39;58.12;100251.78;7389347;19;1864;-40
2023/07/30 11:58:48;;;;;;;;;;;;;;;23.36;58.18;100244.06;7392782;19;1484;-41
2023/07/30 12:01:17;;;;;;;;;;;;;;;23.36;57.97;100243.22;7390721;19;2207;-40
2023/07/30 12:03:48;;;;;;;;;;;;;;;23.24;58.26;100242.78;7388504;19;1488;-41
2023/07/30 12:06:16;;;;;;;;;;;;;;;23.37;57.95;100232.22;7392603;19;1559;-41
2023/07/30 12:08:44;;;;;;;;;;;;;;;23.53;57.70;100233.16;7390554;19;1454;-41
2023/07/30 12:11:13;;;;;;;;;;;;;;;23.50;57.41;100223.56;7391655;19;1563;-41
2023/07/30 12:13:45;;;;;;;;;;;;;;;23.48;57.76;100217.50;7390425;19;1532;-41
2023/07/30 12:16:14;;;;;;;;;;;;;;;23.47;57.70;100220.38;7390897;19;1852;-42
2023/07/30 12:18:42;;;;;;;;;;;;;;;23.46;57.74;100216.00;7389104;19;1825;-42
2023/07/30 12:21:13;;;;;;;;;;;;;;;23.28;58.03;100219.81;7387463;19;1566;-41
2023/07/30 12:23:41;;;;;;;;;;;;;;;23.46;57.82;100221.38;7389239;19;1434;-41
2023/07/30 12:26:10;;;;;;;;;;;;;;;23.47;57.72;100213.13;7389293;19;1488;-42
2023/07/30 12:28:38;;;;;;;;;;;;;;;23.48;57.88;100208.59;7388021;19;1336;-41
2023/07/30 12:31:06;;;;;;;;;;;;;;;23.55;58.14;100202.25;7384653;19;1524;-41
2023/07/30 12:33:34;;;;;;;;;;;;;;;23.46;58.56;100203.34;7387650;19;1390;-41
2023/07/30 12:36:03;;;;;;;;;;;;;;;23.53;58.43;100192.69;7389616;19;1839;-41
2023/07/30 12:38:34;;;;;;;;;;;;;;;23.50;58.52;100201.97;7384460;19;1442;-41
2023/07/30 12:41:02;;;;;;;;;;;;;;;23.40;59.20;100194.13;7384562;19;1614;-41
2023/07/30 12:43:31;;;;;;;;;;;;;;;23.46;58.88;100197.09;7389741;19;1493;-41
2023/07/30 12:45:59;;;;;;;;;;;;;;;23.51;58.79;100175.81;7391444;19;1139;-42
2023/07/30 12:48:27;;;;;;;;;;;;;;;23.50;58.73;100166.91;7388945;19;1662;-41
2023/07/30 12:50:55;;;;;;;;;;;;;;;23.48;58.36;100187.00;7388615;19;1456;-41
2023/07/30 12:53:24;;;;;;;;;;;;;;;23.30;58.76;100174.63;7389309;19;1505;-41
2023/07/30 12:55:55;;;;;;;;;;;;;;;23.41;58.58;100182.28;7389701;19;1849;-41